Time;durP1;ratioP1;P1;durP2;ratioP2;P2;SDS_P1;SDS_P2;PMS_P1;PMS_P2;Temp;Humidity;BMP_temperature;BMP_pressure;BME280_temperature;BME280_humidity;BME280_pressure;Samples;Min_cycle;Max_cycle;Signal;HPM_P1;HPM_P2
2022/01/05 00:00:24;;;;;;;36.33;24.30;;;9.40;92.30;;;;;;5023459;28;20113;-79
2022/01/05 00:02:49;;;;;;;43.35;28.88;;;9.40;92.30;;;;;;5040177;28;20381;-80
2022/01/05 00:05:15;;;;;;;46.53;31.77;;;9.30;92.50;;;;;;5027130;28;20073;-78
2022/01/05 00:07:41;;;;;;;40.60;28.38;;;9.30;92.50;;;;;;5039204;28;20029;-81
2022/01/05 00:10:07;;;;;;;39.67;27.38;;;9.40;92.40;;;;;;5023572;28;20034;-78
2022/01/05 00:12:33;;;;;;;36.17;26.90;;;9.40;92.30;;;;;;5050915;28;20507;-78
2022/01/05 00:14:58;;;;;;;38.90;27.50;;;9.50;92.30;;;;;;5038575;28;20037;-80
2022/01/05 00:17:24;;;;;;;44.08;28.90;;;9.50;92.30;;;;;;5038051;28;20032;-80
2022/01/05 00:19:50;;;;;;;37.88;26.38;;;9.50;92.20;;;;;;5038597;28;20022;-79
2022/01/05 00:22:15;;;;;;;41.03;27.75;;;9.50;92.20;;;;;;5027426;28;20036;-80
2022/01/05 00:24:41;;;;;;;38.55;27.20;;;9.50;92.20;;;;;;5021535;28;20038;-80
2022/01/05 00:27:07;;;;;;;38.35;27.58;;;9.50;92.30;;;;;;5046446;28;20021;-80
2022/01/05 00:29:32;;;;;;;43.20;30.10;;;9.50;92.40;;;;;;5024332;28;20057;-80
2022/01/05 00:31:58;;;;;;;37.63;26.83;;;9.40;92.30;;;;;;5029352;28;20017;-80
2022/01/05 00:34:24;;;;;;;49.85;34.97;;;9.40;92.40;;;;;;5017143;28;20425;-80
2022/01/05 00:36:50;;;;;;;38.67;28.02;;;9.40;92.50;;;;;;5017220;28;20092;-80
2022/01/05 00:39:15;;;;;;;45.33;31.15;;;9.40;92.40;;;;;;4999584;28;20466;-81
2022/01/05 00:41:41;;;;;;;37.20;26.02;;;9.30;92.60;;;;;;5004087;28;20021;-80
2022/01/05 00:44:07;;;;;;;51.70;34.38;;;9.30;92.50;;;;;;5024332;28;20410;-79
2022/01/05 00:46:32;;;;;;;37.63;25.75;;;9.40;92.40;;;;;;4991010;28;20375;-80
2022/01/05 00:48:58;;;;;;;37.40;24.55;;;9.40;92.50;;;;;;5003894;28;20056;-80
2022/01/05 00:51:24;;;;;;;36.15;25.08;;;9.40;92.40;;;;;;5015220;28;20014;-80
2022/01/05 00:53:49;;;;;;;44.63;31.10;;;9.50;92.40;;;;;;5015295;28;20484;-80
2022/01/05 00:56:15;;;;;;;30.90;22.65;;;9.50;92.20;;;;;;5015389;28;20045;-80
2022/01/05 00:58:41;;;;;;;34.83;23.95;;;9.50;92.30;;;;;;5015933;28;20109;-80
2022/01/05 01:01:07;;;;;;;37.20;25.63;;;9.50;92.20;;;;;;5032747;28;20038;-80
2022/01/05 01:03:32;;;;;;;33.20;23.92;;;9.50;92.20;;;;;;5019838;28;20079;-80
2022/01/05 01:05:59;;;;;;;29.80;21.15;;;9.50;92.20;;;;;;5019141;28;20485;-80
2022/01/05 01:08:25;;;;;;;37.80;23.70;;;9.50;92.30;;;;;;5001743;28;20022;-80
2022/01/05 01:10:52;;;;;;;29.23;22.45;;;9.50;92.30;;;;;;5017280;28;20029;-80
2022/01/05 01:13:19;;;;;;;33.13;23.48;;;9.60;92.30;;;;;;5001184;28;20026;-79
2022/01/05 01:15:49;;;;;;;31.50;22.13;;;9.60;92.20;;;;;;5017652;28;20057;-80
2022/01/05 01:18:15;;;;;;;30.40;22.08;;;9.70;92.10;;;;;;5017658;28;20469;-81
2022/01/05 01:20:41;;;;;;;35.72;23.85;;;9.70;92.00;;;;;;5000362;28;20100;-81
2022/01/05 01:23:08;;;;;;;36.05;25.98;;;9.70;92.10;;;;;;5017329;28;20030;-81
2022/01/05 01:25:33;;;;;;;34.45;23.95;;;9.70;91.90;;;;;;4995605;28;20042;-80
2022/01/05 01:27:59;;;;;;;33.13;22.25;;;9.70;92.00;;;;;;5011220;28;20025;-80
2022/01/05 01:30:25;;;;;;;35.45;23.98;;;9.60;92.00;;;;;;5017467;28;20037;-80
2022/01/05 01:32:51;;;;;;;32.78;23.88;;;9.60;92.10;;;;;;5017918;28;20034;-79
2022/01/05 01:35:17;;;;;;;33.20;24.10;;;9.60;92.10;;;;;;5000217;28;20057;-80
2022/01/05 01:37:42;;;;;;;34.55;23.65;;;9.70;92.00;;;;;;4988360;28;20120;-80
2022/01/05 01:40:09;;;;;;;31.73;22.33;;;9.70;92.00;;;;;;5014679;28;20087;-79
2022/01/05 01:42:35;;;;;;;29.40;20.38;;;9.80;92.00;;;;;;4998340;28;20470;-79
2022/01/05 01:45:03;;;;;;;29.30;21.27;;;9.80;91.80;;;;;;5016743;28;20072;-80
2022/01/05 01:47:29;;;;;;;28.33;20.05;;;9.80;91.80;;;;;;5017370;28;20109;-80
2022/01/05 01:49:54;;;;;;;28.45;20.35;;;9.80;91.80;;;;;;5017402;28;20543;-80
2022/01/05 01:52:20;;;;;;;28.02;19.30;;;9.80;91.60;;;;;;5000193;28;20033;-81
2022/01/05 01:54:46;;;;;;;27.98;20.58;;;9.80;91.70;;;;;;4998782;28;20500;-80
2022/01/05 01:57:14;;;;;;;27.73;20.48;;;9.80;91.70;;;;;;4984675;28;20065;-80
2022/01/05 01:59:40;;;;;;;26.30;19.27;;;9.80;91.60;;;;;;5016577;28;20097;-80
2022/01/05 02:02:07;;;;;;;26.13;18.63;;;9.80;91.70;;;;;;5012958;28;20065;-80
2022/01/05 02:04:35;;;;;;;25.67;18.85;;;9.80;91.70;;;;;;5017552;28;20022;-80
2022/01/05 02:07:02;;;;;;;25.98;19.20;;;9.80;92.00;;;;;;4999074;28;20080;-80
2022/01/05 02:09:28;;;;;;;27.45;19.83;;;9.80;91.80;;;;;;5012885;28;20026;-80
2022/01/05 02:11:54;;;;;;;29.08;21.17;;;9.90;91.80;;;;;;5017029;28;20088;-80
2022/01/05 02:14:20;;;;;;;28.92;21.80;;;9.90;91.80;;;;;;5016452;28;20022;-80
2022/01/05 02:16:45;;;;;;;31.63;22.77;;;9.90;91.80;;;;;;4999045;28;20057;-80
2022/01/05 02:19:13;;;;;;;30.60;21.42;;;9.90;91.70;;;;;;5015517;28;20166;-80
2022/01/05 02:21:39;;;;;;;29.70;21.73;;;9.90;91.60;;;;;;5022406;28;20056;-80
2022/01/05 02:24:07;;;;;;;28.65;20.73;;;9.90;91.60;;;;;;5026875;28;20104;-79
2022/01/05 02:26:34;;;;;;;27.75;20.40;;;9.90;91.60;;;;;;5012092;28;20112;-79
2022/01/05 02:29:00;;;;;;;28.60;20.58;;;10.00;91.50;;;;;;5019056;28;20048;-79
2022/01/05 02:31:26;;;;;;;27.77;20.70;;;9.90;91.50;;;;;;5036532;28;20018;-79
2022/01/05 02:33:52;;;;;;;27.95;20.50;;;9.90;91.50;;;;;;5026780;28;20097;-79
2022/01/05 02:36:20;;;;;;;26.95;19.38;;;9.90;91.50;;;;;;5004455;28;20033;-79
2022/01/05 02:38:47;;;;;;;27.35;20.10;;;9.90;91.50;;;;;;5005306;28;20030;-80
2022/01/05 02:41:13;;;;;;;29.63;22.27;;;9.90;91.60;;;;;;5013104;28;20104;-80
2022/01/05 02:43:41;;;;;;;27.25;19.60;;;9.90;91.50;;;;;;5023724;28;20061;-80
2022/01/05 02:46:12;;;;;;;25.15;18.55;;;9.90;91.60;;;;;;5027483;28;20097;-80
2022/01/05 02:48:39;;;;;;;27.20;19.35;;;9.90;91.60;;;;;;5029718;28;20100;-80
2022/01/05 02:51:05;;;;;;;23.30;18.30;;;9.90;91.60;;;;;;5014999;28;20032;-79
2022/01/05 02:53:32;;;;;;;23.42;18.40;;;9.90;91.60;;;;;;5022247;28;20448;-79
2022/01/05 02:55:58;;;;;;;28.75;21.38;;;9.90;91.60;;;;;;5033088;28;20033;-80
2022/01/05 02:58:24;;;;;;;24.55;17.98;;;9.90;91.40;;;;;;5030881;28;20100;-80
2022/01/05 03:00:50;;;;;;;25.20;20.15;;;9.80;91.60;;;;;;5006172;28;20038;-80
2022/01/05 03:03:15;;;;;;;23.35;18.60;;;9.90;91.60;;;;;;5034526;28;20057;-79
2022/01/05 03:05:41;;;;;;;26.23;19.40;;;9.90;91.70;;;;;;5004246;28;20119;-80
2022/01/05 03:08:07;;;;;;;23.88;17.73;;;9.90;91.70;;;;;;4998180;28;20095;-80
2022/01/05 03:10:34;;;;;;;22.88;18.08;;;9.90;91.60;;;;;;5018645;28;20041;-79
2022/01/05 03:13:00;;;;;;;21.33;16.30;;;9.90;91.60;;;;;;5033463;28;20053;-79
2022/01/05 03:15:26;;;;;;;22.60;17.23;;;9.80;91.60;;;;;;5001649;28;20088;-80
2022/01/05 03:17:51;;;;;;;23.00;18.10;;;9.80;91.70;;;;;;5004710;28;20030;-81
2022/01/05 03:20:17;;;;;;;24.48;18.05;;;9.80;91.70;;;;;;5027015;28;20537;-80
2022/01/05 03:22:44;;;;;;;20.65;16.35;;;9.80;91.70;;;;;;5021857;28;20034;-79
2022/01/05 03:25:16;;;;;;;20.20;16.70;;;9.70;91.80;;;;;;5004381;28;20500;-79
2022/01/05 03:27:47;;;;;;;23.73;17.23;;;9.80;91.80;;;;;;4999878;28;20029;-78
2022/01/05 03:30:15;;;;;;;23.00;16.85;;;9.80;91.80;;;;;;5011134;28;20031;-79
2022/01/05 03:33:09;;;;;;;21.05;15.90;;;9.80;91.80;;;;;;5024922;28;20032;-80
2022/01/05 03:35:29;;;;;;;22.33;16.88;;;9.80;91.80;;;;;;5011369;28;20153;-80
2022/01/05 03:37:55;;;;;;;20.80;16.95;;;9.80;91.80;;;;;;5009570;28;20068;-79
2022/01/05 03:40:21;;;;;;;22.05;16.92;;;9.80;91.80;;;;;;5025094;28;20037;-79
2022/01/05 03:42:47;;;;;;;22.98;16.83;;;9.90;91.80;;;;;;5013776;28;20436;-79
2022/01/05 03:45:13;;;;;;;21.52;16.52;;;9.90;91.70;;;;;;5018226;28;20073;-79
2022/01/05 03:47:39;;;;;;;21.10;16.52;;;9.90;91.70;;;;;;5004447;28;20026;-79
2022/01/05 03:50:06;;;;;;;20.23;15.98;;;9.90;91.70;;;;;;5033332;28;20397;-78
2022/01/05 03:52:32;;;;;;;20.83;16.27;;;9.90;91.60;;;;;;5023436;28;20120;-81
2022/01/05 03:54:59;;;;;;;19.35;15.73;;;10.00;91.60;;;;;;5004028;28;20026;-81
2022/01/05 03:57:27;;;;;;;20.02;15.40;;;10.00;91.60;;;;;;5018561;28;20505;-80
2022/01/05 03:59:53;;;;;;;23.65;16.80;;;10.00;91.60;;;;;;5009057;28;20451;-81
2022/01/05 04:02:19;;;;;;;23.63;17.45;;;10.00;91.40;;;;;;4999307;28;20110;-79
2022/01/05 04:04:46;;;;;;;24.65;18.30;;;9.90;91.60;;;;;;5022299;28;20034;-79
2022/01/05 04:07:12;;;;;;;24.63;18.70;;;9.80;91.60;;;;;;5017191;28;20080;-78
2022/01/05 04:09:38;;;;;;;24.67;17.75;;;9.80;91.70;;;;;;5008254;28;20030;-79
2022/01/05 04:12:04;;;;;;;26.23;18.33;;;9.80;91.70;;;;;;4998666;28;20021;-80
2022/01/05 04:14:29;;;;;;;21.88;17.65;;;9.80;92.00;;;;;;5027529;28;20037;-79
2022/01/05 04:16:55;;;;;;;25.67;17.45;;;9.80;91.80;;;;;;5033532;28;20021;-80
2022/01/05 04:19:21;;;;;;;25.65;18.45;;;9.90;91.80;;;;;;5033024;28;20042;-79
2022/01/05 04:21:47;;;;;;;25.45;16.92;;;9.90;91.80;;;;;;5007440;28;20025;-80
2022/01/05 04:24:13;;;;;;;24.92;18.15;;;9.90;91.80;;;;;;5027987;28;20049;-77
2022/01/05 04:26:39;;;;;;;23.10;17.48;;;9.90;91.70;;;;;;5017207;28;20029;-79
2022/01/05 04:29:05;;;;;;;22.38;18.02;;;9.90;91.70;;;;;;5031054;28;20034;-79
2022/01/05 04:31:30;;;;;;;22.02;17.77;;;9.90;91.70;;;;;;5015858;28;20532;-80
2022/01/05 04:33:56;;;;;;;24.25;17.42;;;10.00;91.70;;;;;;5018973;28;20406;-79
2022/01/05 04:36:22;;;;;;;22.90;18.15;;;10.00;91.70;;;;;;4999458;28;20462;-80
2022/01/05 04:38:47;;;;;;;24.83;19.05;;;10.00;91.60;;;;;;5017909;28;20104;-81
2022/01/05 04:41:13;;;;;;;23.23;17.73;;;10.00;91.60;;;;;;5035321;28;20130;-81
2022/01/05 04:43:39;;;;;;;26.20;18.63;;;10.00;91.60;;;;;;5015446;28;20025;-81
2022/01/05 04:46:04;;;;;;;26.90;18.27;;;9.90;91.70;;;;;;5008589;28;20033;-80
2022/01/05 04:48:32;;;;;;;26.13;18.02;;;9.90;91.70;;;;;;5008266;28;20509;-80
2022/01/05 04:50:57;;;;;;;28.88;18.45;;;9.90;91.70;;;;;;5018969;28;20030;-80
2022/01/05 04:53:23;;;;;;;31.67;19.65;;;9.90;91.70;;;;;;5037188;28;20046;-81
2022/01/05 04:55:49;;;;;;;32.78;20.13;;;9.90;91.70;;;;;;5018387;28;20100;-80
2022/01/05 04:58:14;;;;;;;39.03;24.40;;;9.90;91.70;;;;;;5008925;28;20030;-80
2022/01/05 05:00:40;;;;;;;36.67;21.25;;;9.80;91.80;;;;;;5001180;28;20026;-81
2022/01/05 05:03:06;;;;;;;32.65;20.00;;;9.80;91.80;;;;;;5024081;28;20034;-81
2022/01/05 05:05:33;;;;;;;35.30;20.90;;;9.80;91.90;;;;;;5000573;28;20030;-81
2022/01/05 05:07:59;;;;;;;34.47;21.02;;;9.80;91.90;;;;;;5018125;28;20465;-81
2022/01/05 05:10:25;;;;;;;44.38;22.77;;;9.80;91.90;;;;;;5018176;28;20022;-80
2022/01/05 05:12:51;;;;;;;35.85;21.25;;;9.80;92.00;;;;;;5006170;28;20042;-81
2022/01/05 05:15:16;;;;;;;30.23;19.77;;;9.80;92.00;;;;;;5028345;28;20112;-81
2022/01/05 05:17:42;;;;;;;29.20;19.90;;;9.80;92.10;;;;;;5029330;28;20033;-80
2022/01/05 05:20:09;;;;;;;30.05;19.65;;;9.80;92.10;;;;;;4999114;28;20168;-80
2022/01/05 05:22:35;;;;;;;30.88;19.35;;;9.80;92.10;;;;;;5026421;28;20061;-79
2022/01/05 05:25:02;;;;;;;32.53;20.17;;;9.80;92.00;;;;;;5001160;28;20121;-79
2022/01/05 05:27:28;;;;;;;29.92;19.23;;;9.90;92.10;;;;;;5016232;28;20041;-79
2022/01/05 05:29:54;;;;;;;31.65;19.88;;;9.80;92.00;;;;;;5015340;28;20026;-79
2022/01/05 05:32:20;;;;;;;28.52;19.55;;;9.90;92.10;;;;;;5021910;28;20072;-79
2022/01/05 05:34:45;;;;;;;34.55;20.38;;;9.90;92.10;;;;;;5025726;28;20377;-79
2022/01/05 05:37:11;;;;;;;37.80;22.65;;;9.90;92.00;;;;;;5015464;28;20438;-79
2022/01/05 05:39:37;;;;;;;30.75;19.60;;;9.80;92.10;;;;;;5021615;28;20080;-79
2022/01/05 05:42:03;;;;;;;35.70;20.67;;;9.70;92.50;;;;;;5009337;28;20030;-78
2022/01/05 05:44:29;;;;;;;35.72;20.80;;;9.70;92.40;;;;;;5025400;28;20029;-79
2022/01/05 05:46:54;;;;;;;38.53;23.00;;;9.80;92.40;;;;;;5018845;28;20469;-79
2022/01/05 05:49:20;;;;;;;37.35;21.83;;;9.70;92.70;;;;;;5021690;28;20045;-79
2022/01/05 05:51:46;;;;;;;35.10;21.90;;;9.60;92.80;;;;;;5015182;28;20041;-79
2022/01/05 05:54:11;;;;;;;38.58;22.35;;;9.70;92.70;;;;;;5025608;28;20026;-81
2022/01/05 05:56:37;;;;;;;38.33;21.13;;;9.70;92.60;;;;;;5026563;28;20467;-79
2022/01/05 05:59:03;;;;;;;40.85;21.58;;;9.70;92.60;;;;;;5019068;28;20441;-80
2022/01/05 06:01:29;;;;;;;39.25;20.80;;;9.70;92.70;;;;;;5027735;28;20268;-79
2022/01/05 06:03:56;;;;;;;39.20;22.38;;;9.80;92.70;;;;;;5019617;28;20485;-80
2022/01/05 06:06:21;;;;;;;38.85;21.20;;;9.80;92.60;;;;;;5010774;28;20037;-80
2022/01/05 06:08:47;;;;;;;40.83;22.58;;;9.80;92.60;;;;;;5024038;28;20037;-80
2022/01/05 06:11:13;;;;;;;37.15;20.67;;;9.90;92.60;;;;;;5033417;28;20030;-80
2022/01/05 06:13:38;;;;;;;34.95;21.10;;;9.90;92.60;;;;;;5010105;28;20051;-79
2022/01/05 06:16:04;;;;;;;34.88;20.90;;;9.90;92.60;;;;;;5013380;28;20026;-79
2022/01/05 06:18:30;;;;;;;34.00;19.60;;;9.90;92.50;;;;;;5019029;28;20114;-80
2022/01/05 06:20:56;;;;;;;33.35;20.02;;;9.90;92.80;;;;;;5014939;28;20037;-80
2022/01/05 06:23:22;;;;;;;38.42;22.25;;;9.90;92.60;;;;;;5016766;28;20505;-80
2022/01/05 06:25:47;;;;;;;35.67;20.95;;;9.90;92.50;;;;;;5033156;28;20032;-80
2022/01/05 06:28:13;;;;;;;31.17;18.45;;;9.90;92.50;;;;;;5015480;28;20532;-82
2022/01/05 06:30:39;;;;;;;32.42;18.80;;;9.90;92.50;;;;;;5005171;28;20092;-81
2022/01/05 06:33:05;;;;;;;30.77;18.70;;;9.90;92.50;;;;;;5021298;28;20030;-81
2022/01/05 06:35:31;;;;;;;30.40;17.95;;;9.90;92.60;;;;;;5017640;28;20121;-82
2022/01/05 06:37:57;;;;;;;31.38;17.60;;;9.90;92.60;;;;;;5018421;28;20060;-82
2022/01/05 06:40:23;;;;;;;30.50;17.75;;;10.00;92.60;;;;;;5018828;28;20038;-81
2022/01/05 06:42:49;;;;;;;31.25;18.65;;;9.90;92.50;;;;;;5007021;28;20378;-81
2022/01/05 06:45:15;;;;;;;28.85;17.85;;;10.00;92.60;;;;;;5019557;28;20406;-81
2022/01/05 06:47:41;;;;;;;30.70;17.60;;;10.00;92.50;;;;;;5034231;28;20101;-81
2022/01/05 06:50:08;;;;;;;30.60;18.15;;;10.00;92.50;;;;;;5001184;28;20117;-77
2022/01/05 06:52:34;;;;;;;32.53;19.00;;;10.00;92.50;;;;;;5010996;28;20028;-79
2022/01/05 06:55:00;;;;;;;54.03;30.85;;;10.10;92.50;;;;;;5014859;28;20069;-79
2022/01/05 06:57:26;;;;;;;35.72;21.73;;;10.00;92.30;;;;;;5012482;28;20065;-79
2022/01/05 06:59:51;;;;;;;35.65;20.90;;;9.90;92.60;;;;;;4997088;28;20425;-79
2022/01/05 07:02:17;;;;;;;36.10;22.00;;;9.90;92.60;;;;;;5008051;28;20117;-79
2022/01/05 07:07:18;;;;;;;31.83;19.38;;;9.90;92.80;;;;;;5025085;22;20054;-80
2022/01/05 07:09:44;;;;;;;28.23;18.35;;;9.90;92.90;;;;;;4990062;28;20030;-80
2022/01/05 07:12:10;;;;;;;31.55;18.27;;;9.90;92.80;;;;;;4985851;28;20034;-82
2022/01/05 07:14:36;;;;;;;24.33;16.70;;;9.90;92.80;;;;;;4990973;28;20042;-83
2022/01/05 07:17:01;;;;;;;30.00;19.63;;;9.90;92.80;;;;;;4989901;28;20045;-85
2022/01/05 07:19:27;;;;;;;22.20;15.05;;;9.90;92.80;;;;;;4994938;28;20030;-84
2022/01/05 07:21:53;;;;;;;24.60;16.52;;;9.80;93.00;;;;;;4994639;28;20037;-83
2022/01/05 07:24:19;;;;;;;26.23;15.43;;;9.80;93.30;;;;;;4990724;28;20033;-83
2022/01/05 07:26:47;;;;;;;26.05;16.52;;;10.00;93.50;;;;;;4993576;28;20026;-84
2022/01/05 07:29:17;;;;;;;21.25;14.85;;;10.10;93.10;;;;;;4977107;28;20022;-84
2022/01/05 07:31:43;;;;;;;20.48;14.90;;;10.20;92.90;;;;;;4984808;28;20049;-84
2022/01/05 07:34:10;;;;;;;23.15;15.32;;;10.30;92.70;;;;;;4994189;28;20448;-84
2022/01/05 07:36:35;;;;;;;20.73;14.73;;;10.30;92.60;;;;;;4986932;28;20195;-84
2022/01/05 07:39:04;;;;;;;19.48;14.70;;;10.30;92.40;;;;;;4994289;28;20462;-84
2022/01/05 07:41:34;;;;;;;23.10;15.63;;;10.30;92.30;;;;;;4983183;28;20126;-84
2022/01/05 07:43:59;;;;;;;21.15;14.40;;;10.20;92.40;;;;;;4993718;28;20482;-83
2022/01/05 07:46:25;;;;;;;23.38;16.55;;;10.30;92.40;;;;;;4986672;28;20097;-82
2022/01/05 07:48:51;;;;;;;19.70;14.07;;;10.30;92.30;;;;;;4977369;28;20501;-81
2022/01/05 07:51:17;;;;;;;22.50;15.05;;;10.30;92.40;;;;;;4979799;28;20027;-82
2022/01/05 07:53:42;;;;;;;20.58;14.50;;;10.20;92.30;;;;;;4978817;28;20031;-82
2022/01/05 07:56:08;;;;;;;21.30;14.65;;;10.20;92.30;;;;;;4989251;28;20552;-86
2022/01/05 07:58:35;;;;;;;19.45;14.80;;;10.20;92.30;;;;;;4985732;28;20348;-83
2022/01/05 08:01:03;;;;;;;19.90;15.65;;;10.20;92.30;;;;;;4989275;28;20081;-82
2022/01/05 08:03:30;;;;;;;19.90;14.93;;;10.20;92.40;;;;;;4992785;28;20034;-84
2022/01/05 08:05:56;;;;;;;21.92;14.98;;;10.30;92.30;;;;;;4985121;28;20027;-84
2022/01/05 08:08:22;;;;;;;18.42;14.38;;;10.20;92.30;;;;;;4994411;28;20034;-84
2022/01/05 08:10:47;;;;;;;21.05;15.90;;;10.20;92.30;;;;;;4994153;28;20097;-84
2022/01/05 08:13:13;;;;;;;19.45;15.32;;;10.20;92.40;;;;;;4994746;28;20031;-84
2022/01/05 08:15:39;;;;;;;26.45;15.55;;;10.20;92.30;;;;;;4976974;28;20030;-84
2022/01/05 08:18:04;;;;;;;18.85;14.75;;;10.20;92.40;;;;;;4993497;28;20351;-84
2022/01/05 08:20:30;;;;;;;20.92;15.68;;;10.10;92.50;;;;;;4994825;28;20026;-84
2022/01/05 08:22:55;;;;;;;22.95;17.02;;;10.10;92.50;;;;;;4995318;28;20104;-85
2022/01/05 08:25:21;;;;;;;20.38;15.40;;;10.10;92.50;;;;;;4994355;28;20069;-84
2022/01/05 08:27:47;;;;;;;22.70;17.10;;;10.10;92.60;;;;;;4983314;28;20015;-85
2022/01/05 08:30:18;;;;;;;24.10;16.70;;;10.20;92.60;;;;;;4980162;28;20033;-83
2022/01/05 08:32:46;;;;;;;21.80;16.45;;;10.20;92.60;;;;;;4973932;28;20027;-85
2022/01/05 08:35:13;;;;;;;21.30;16.52;;;10.20;92.50;;;;;;4977033;28;20039;-85
2022/01/05 08:37:43;;;;;;;17.85;14.65;;;10.10;92.60;;;;;;4976079;28;20462;-85
2022/01/05 08:40:14;;;;;;;19.77;15.50;;;10.10;92.70;;;;;;4975762;28;20037;-86
2022/01/05 08:42:40;;;;;;;;;;;10.20;92.70;;;;;;4975425;28;20035;-85
2022/01/05 08:45:09;;;;;;;19.98;15.20;;;10.20;92.50;;;;;;4980906;28;20388;-85
2022/01/05 08:47:35;;;;;;;18.73;14.70;;;10.20;92.60;;;;;;4975559;28;20038;-85
2022/01/05 08:50:01;;;;;;;20.10;15.55;;;10.30;92.60;;;;;;4975533;28;20035;-84
2022/01/05 08:52:27;;;;;;;21.75;16.13;;;10.30;92.50;;;;;;4975129;28;20063;-83
2022/01/05 08:54:52;;;;;;;20.02;15.55;;;10.30;92.50;;;;;;4974852;28;20061;-82
2022/01/05 08:57:19;;;;;;;19.70;14.55;;;10.40;92.50;;;;;;4974946;28;20054;-82
2022/01/05 08:59:45;;;;;;;19.95;14.68;;;10.40;92.50;;;;;;4977894;28;20042;-83
2022/01/05 09:02:15;;;;;;;22.20;15.27;;;10.50;92.40;;;;;;4993427;28;20148;-82
2022/01/05 09:04:41;;;;;;;17.92;14.30;;;10.50;92.30;;;;;;4993686;28;20026;-82
2022/01/05 09:07:07;;;;;;;19.02;14.68;;;10.50;92.30;;;;;;4973207;28;20035;-82
2022/01/05 09:09:33;;;;;;;22.75;16.67;;;10.50;92.30;;;;;;4962946;28;20049;-81
2022/01/05 09:11:59;;;;;;;18.90;15.30;;;10.40;92.30;;;;;;4980774;28;20061;-82
2022/01/05 09:14:25;;;;;;;18.50;15.23;;;10.40;92.40;;;;;;4984169;28;20023;-82
2022/01/05 09:16:52;;;;;;;18.63;15.18;;;10.30;92.50;;;;;;4984453;28;20105;-84
2022/01/05 09:19:18;;;;;;;19.17;14.45;;;10.30;92.70;;;;;;4990708;28;20417;-83
2022/01/05 09:21:48;;;;;;;17.35;13.98;;;10.30;92.60;;;;;;4984881;28;20023;-83
2022/01/05 09:24:14;;;;;;;;;;;10.30;92.60;;;;;;4981211;28;20030;-83
2022/01/05 09:26:41;;;;;;;24.40;17.17;;;10.30;92.60;;;;;;4978494;28;20389;-82
2022/01/05 09:29:07;;;;;;;22.75;17.35;;;10.30;92.60;;;;;;4993772;28;20085;-82
2022/01/05 09:31:33;;;;;;;24.02;16.80;;;10.20;92.80;;;;;;4996318;28;20042;-81
2022/01/05 09:33:59;;;;;;;19.73;15.10;;;10.20;92.80;;;;;;4996306;28;20782;-81
2022/01/05 09:36:35;;;;;;;19.20;15.07;;;10.20;92.80;;;;;;4995632;28;20117;-78
2022/01/05 09:42:00;;;;;;;18.63;14.90;;;10.40;92.80;;;;;;4987183;28;20041;-82
2022/01/05 09:44:59;;;;;;;18.00;15.13;;;10.40;92.70;;;;;;4964733;28;20093;-83
2022/01/05 09:48:04;;;;;;;22.10;15.05;;;10.50;92.70;;;;;;4967094;28;20117;-83
2022/01/05 09:50:31;;;;;;;19.30;15.15;;;10.60;92.60;;;;;;4926219;28;20042;-83
2022/01/05 09:52:58;;;;;;;17.27;14.43;;;10.60;92.60;;;;;;4967664;28;20046;-83
2022/01/05 09:55:24;;;;;;;18.08;14.35;;;10.60;92.60;;;;;;4996891;28;20030;-83
2022/01/05 09:57:51;;;;;;;17.23;14.60;;;10.60;92.60;;;;;;4980689;28;20034;-84
2022/01/05 10:00:17;;;;;;;18.38;14.70;;;10.70;92.60;;;;;;4984048;28;20023;-83
2022/01/05 10:02:45;;;;;;;15.80;13.80;;;10.70;92.60;;;;;;4973264;28;20038;-84
2022/01/05 10:05:13;;;;;;;17.75;15.10;;;10.80;92.50;;;;;;4975278;28;20030;-81
2022/01/05 10:07:41;;;;;;;17.00;14.50;;;10.80;92.50;;;;;;4985733;28;20055;-82
2022/01/05 10:10:09;;;;;;;18.67;15.45;;;10.80;92.50;;;;;;4986040;28;20030;-83
2022/01/05 10:12:35;;;;;;;18.05;14.93;;;10.90;92.40;;;;;;4976819;28;20038;-84
2022/01/05 10:15:01;;;;;;;18.95;15.10;;;10.90;92.50;;;;;;4980001;28;20030;-83
2022/01/05 10:17:29;;;;;;;18.60;14.95;;;11.00;92.50;;;;;;4990889;28;20034;-83
2022/01/05 10:20:04;;;;;;;18.77;15.23;;;11.10;92.40;;;;;;5000827;28;20110;-84
2022/01/05 10:22:45;;;;;;;18.67;15.13;;;11.10;92.30;;;;;;4995982;28;20026;-82
2022/01/05 10:25:23;;;;;;;21.13;15.95;;;11.20;92.40;;;;;;4994955;28;20348;-85
2022/01/05 10:27:59;;;;;;;18.13;14.63;;;11.20;92.30;;;;;;4989179;28;20035;-82
2022/01/05 10:30:46;;;;;;;19.83;15.63;;;11.30;92.30;;;;;;4996535;28;20049;-83
2022/01/05 10:33:12;;;;;;;20.15;16.15;;;11.40;92.20;;;;;;4979081;28;20462;-83
2022/01/05 10:35:38;;;;;;;20.27;16.13;;;11.40;92.00;;;;;;4977252;28;20041;-83
2022/01/05 10:38:08;;;;;;;20.33;16.13;;;11.40;92.00;;;;;;4989817;28;20114;-82
2022/01/05 10:40:35;;;;;;;21.92;17.55;;;11.50;92.00;;;;;;4975806;28;20033;-82
2022/01/05 10:43:08;;;;;;;21.25;16.48;;;11.50;92.00;;;;;;4976928;28;20034;-81
2022/01/05 10:45:39;;;;;;;23.50;17.33;;;11.50;92.00;;;;;;4988397;28;20410;-82
2022/01/05 10:48:13;;;;;;;20.88;17.92;;;11.60;92.00;;;;;;4994234;28;20027;-82
2022/01/05 10:50:39;;;;;;;21.90;16.98;;;11.70;92.00;;;;;;4995998;28;20034;-82
2022/01/05 10:53:08;;;;;;;19.75;15.65;;;11.80;92.00;;;;;;4987277;28;20027;-82
2022/01/05 10:55:40;;;;;;;20.73;17.10;;;11.80;91.80;;;;;;4995386;28;20038;-81
2022/01/05 10:58:18;;;;;;;16.00;14.30;;;11.70;91.90;;;;;;4994356;28;20041;-83
2022/01/05 11:00:47;;;;;;;20.60;16.45;;;11.80;92.20;;;;;;4991670;28;20038;-83
2022/01/05 11:03:41;;;;;;;17.88;14.63;;;11.90;91.90;;;;;;4981105;28;20402;-82
2022/01/05 11:06:15;;;;;;;17.30;14.20;;;12.00;91.80;;;;;;4990860;28;20495;-83
2022/01/05 11:08:59;;;;;;;15.73;13.43;;;11.90;91.80;;;;;;4985324;28;20026;-83
2022/01/05 11:11:40;;;;;;;18.77;15.02;;;12.00;91.80;;;;;;4985790;28;20034;-84
2022/01/05 11:14:15;;;;;;;17.70;14.10;;;12.10;91.80;;;;;;4974964;28;20026;-84
2022/01/05 11:16:51;;;;;;;17.48;14.35;;;12.10;91.80;;;;;;4991931;28;20120;-84
2022/01/05 11:19:22;;;;;;;25.20;19.45;;;12.20;91.70;;;;;;4984239;28;20018;-83
2022/01/05 11:21:54;;;;;;;19.05;14.40;;;12.00;91.70;;;;;;4990079;28;20038;-81
2022/01/05 11:24:20;;;;;;;17.13;14.02;;;12.00;91.90;;;;;;4990070;28;20026;-81
2022/01/05 11:26:46;;;;;;;17.92;14.32;;;12.00;91.90;;;;;;4992304;28;20038;-82
2022/01/05 11:29:13;;;;;;;18.70;14.07;;;12.00;92.20;;;;;;4991763;28;20036;-83
2022/01/05 11:31:38;;;;;;;18.52;14.38;;;12.00;92.10;;;;;;4988740;28;20026;-81
2022/01/05 11:34:05;;;;;;;19.38;13.88;;;12.10;92.10;;;;;;4988524;28;20025;-81
2022/01/05 11:36:32;;;;;;;18.00;14.13;;;12.00;92.20;;;;;;4991271;28;20034;-82
2022/01/05 11:38:58;;;;;;;17.67;14.73;;;12.10;92.20;;;;;;4981346;28;20065;-82
2022/01/05 11:41:24;;;;;;;17.80;14.80;;;12.10;92.20;;;;;;4984102;28;20038;-81
2022/01/05 11:43:50;;;;;;;19.65;14.65;;;12.10;92.10;;;;;;4994018;28;20034;-82
2022/01/05 11:46:23;;;;;;;22.33;17.77;;;12.10;92.10;;;;;;4990610;28;20030;-82
2022/01/05 11:49:01;;;;;;;16.85;14.13;;;12.20;92.20;;;;;;4992180;28;20037;-84
2022/01/05 11:51:42;;;;;;;20.02;15.60;;;12.10;92.30;;;;;;4998360;28;20090;-84
2022/01/05 11:54:32;;;;;;;18.63;14.80;;;12.10;92.40;;;;;;4979700;28;20101;-84
2022/01/05 11:57:12;;;;;;;14.73;12.73;;;12.10;92.50;;;;;;4979525;28;20066;-84
2022/01/05 11:59:42;;;;;;;24.10;17.17;;;12.10;92.50;;;;;;4988782;28;20035;-83
2022/01/05 12:02:13;;;;;;;19.08;13.77;;;12.00;92.50;;;;;;4991992;28;20081;-85
2022/01/05 12:04:56;;;;;;;17.48;13.60;;;12.00;92.70;;;;;;4985996;28;20050;-84
2022/01/05 12:07:43;;;;;;;18.95;15.38;;;12.00;92.70;;;;;;4983809;28;20095;-84
2022/01/05 12:10:18;;;;;;;18.33;13.43;;;11.90;92.80;;;;;;4982561;28;20387;-84
2022/01/05 12:13:06;;;;;;;17.40;13.65;;;11.90;92.70;;;;;;4988779;28;20092;-84
2022/01/05 12:15:51;;;;;;;19.23;14.02;;;12.00;92.60;;;;;;4990980;28;20058;-84
2022/01/05 12:18:35;;;;;;;26.08;18.75;;;12.00;92.60;;;;;;4965478;28;20108;-84
2022/01/05 12:21:02;;;;;;;19.95;14.25;;;12.00;92.70;;;;;;4989047;28;20077;-84
2022/01/05 12:23:30;;;;;;;18.00;14.40;;;11.90;93.00;;;;;;4992535;28;20042;-84
2022/01/05 12:26:16;;;;;;;18.83;14.57;;;12.00;92.90;;;;;;4993645;28;20038;-84
2022/01/05 12:28:52;;;;;;;18.83;15.07;;;12.00;92.70;;;;;;4991122;28;20089;-83
2022/01/05 12:31:17;;;;;;;23.52;16.23;;;11.90;93.10;;;;;;4969978;28;20055;-83
2022/01/05 12:33:51;;;;;;;17.52;13.35;;;11.90;93.10;;;;;;4983536;28;20057;-84
2022/01/05 12:36:38;;;;;;;20.27;15.15;;;11.90;93.00;;;;;;4984474;28;20419;-84
2022/01/05 12:39:07;;;;;;;19.40;13.77;;;11.90;93.20;;;;;;4966550;28;20352;-83
2022/01/05 12:41:44;;;;;;;14.88;11.80;;;11.90;93.20;;;;;;4978558;28;20023;-84